Panoche, California
Current Conditions -  °F | °C
As of 12:53 PM on Tuesday 21 Oct 2014 (Local Time) from KSNS Reporting Station
Clear Clear  
Wind Chill: 72°   Ceiling: Unl
Heat Index: 72°   Visibility: 10mi
Dew Point: 39°   Wind: 10mph
Humidity: 30%   Direction: 300°WNW
Pressure: 30.04"   Gusts: NA
Location:  36.4824°N, 120.948°W
Report Text: KSNS 211953Z 30009KT 10SM CLR 22/04 A3004 RMK AO2 SLP181 T02220039
Loading
Personal Weather Stations






























Interactive Weather Map
Tropical Storm Tracking
New forecast layout! Learn more

10-Day Weather Forecast

Advertisements
Track Severe Weather on mobile